Meyersville, Texas
Current Conditions -  °F | °C
As of 8:51 PM on Wednesday 22 Oct 2014 (Local Time) from KVCT Reporting Station
Clear Clear  
Wind Chill: 70°   Ceiling: Unl
Heat Index: 70°   Visibility: 10mi
Dew Point: 63°   Wind: 6mph
Humidity: 78%   Direction: 120°ESE
Pressure: 30.07"   Gusts: NA
Location:  28.93°N, 97.31°W
Report Text: KVCT 230151Z AUTO 12005KT 10SM CLR 21/17 A3007 RMK AO2 SLP180 T02110172
Loading
Personal Weather Stations






























Interactive Weather Map
Tropical Storm Tracking
New forecast layout! Learn more

10-Day Weather Forecast

Advertisements
Track Severe Weather on mobile